sensor_id;sensor_type;location;lat;lon;timestamp;P1;durP1;ratioP1;P2;durP2;ratioP2
4182;SDS011;2105;52.300;9.182;2023-06-10T00:00:27;17.30;;;10.07;;
4182;SDS011;2105;52.300;9.182;2023-06-10T00:02:55;11.60;;;9.33;;
4182;SDS011;2105;52.300;9.182;2023-06-10T00:05:22;11.10;;;9.70;;
4182;SDS011;2105;52.300;9.182;2023-06-10T00:07:49;16.30;;;10.23;;
4182;SDS011;2105;52.300;9.182;2023-06-10T00:10:17;14.37;;;10.90;;
4182;SDS011;2105;52.300;9.182;2023-06-10T00:12:43;15.17;;;10.60;;
4182;SDS011;2105;52.300;9.182;2023-06-10T00:15:11;11.50;;;10.10;;
4182;SDS011;2105;52.300;9.182;2023-06-10T00:17:38;12.73;;;11.37;;
4182;SDS011;2105;52.300;9.182;2023-06-10T00:20:06;13.07;;;10.40;;
4182;SDS011;2105;52.300;9.182;2023-06-10T00:22:35;11.43;;;10.30;;
4182;SDS011;2105;52.300;9.182;2023-06-10T00:25:03;11.20;;;10.10;;
4182;SDS011;2105;52.300;9.182;2023-06-10T00:27:30;14.70;;;10.80;;
4182;SDS011;2105;52.300;9.182;2023-06-10T00:30:00;17.70;;;10.17;;
4182;SDS011;2105;52.300;9.182;2023-06-10T00:32:30;16.20;;;10.10;;
4182;SDS011;2105;52.300;9.182;2023-06-10T00:34:57;11.63;;;10.43;;
4182;SDS011;2105;52.300;9.182;2023-06-10T00:37:24;14.40;;;11.30;;
4182;SDS011;2105;52.300;9.182;2023-06-10T00:39:50;12.30;;;11.00;;
4182;SDS011;2105;52.300;9.182;2023-06-10T00:42:17;11.50;;;10.20;;
4182;SDS011;2105;52.300;9.182;2023-06-10T00:44:44;11.90;;;9.70;;
4182;SDS011;2105;52.300;9.182;2023-06-10T00:47:11;14.27;;;10.13;;
4182;SDS011;2105;52.300;9.182;2023-06-10T00:49:40;13.03;;;9.73;;
4182;SDS011;2105;52.300;9.182;2023-06-10T00:52:07;15.27;;;10.17;;
4182;SDS011;2105;52.300;9.182;2023-06-10T00:54:35;12.37;;;9.30;;
4182;SDS011;2105;52.300;9.182;2023-06-10T00:57:02;17.20;;;10.10;;
4182;SDS011;2105;52.300;9.182;2023-06-10T00:59:30;10.87;;;9.10;;
4182;SDS011;2105;52.300;9.182;2023-06-10T01:01:59;11.40;;;8.77;;
4182;SDS011;2105;52.300;9.182;2023-06-10T01:04:27;11.40;;;8.90;;
4182;SDS011;2105;52.300;9.182;2023-06-10T01:06:57;11.93;;;8.90;;
4182;SDS011;2105;52.300;9.182;2023-06-10T01:09:37;10.50;;;9.30;;
4182;SDS011;2105;52.300;9.182;2023-06-10T01:12:10;9.53;;;8.40;;
4182;SDS011;2105;52.300;9.182;2023-06-10T01:14:42;10.23;;;9.13;;
4182;SDS011;2105;52.300;9.182;2023-06-10T01:17:10;11.73;;;9.77;;
4182;SDS011;2105;52.300;9.182;2023-06-10T01:19:37;16.43;;;9.23;;
4182;SDS011;2105;52.300;9.182;2023-06-10T01:22:07;12.33;;;9.50;;
4182;SDS011;2105;52.300;9.182;2023-06-10T01:24:35;9.63;;;8.63;;
4182;SDS011;2105;52.300;9.182;2023-06-10T01:27:05;12.50;;;9.53;;
4182;SDS011;2105;52.300;9.182;2023-06-10T01:29:37;10.37;;;8.80;;
4182;SDS011;2105;52.300;9.182;2023-06-10T01:32:11;10.00;;;9.20;;
4182;SDS011;2105;52.300;9.182;2023-06-10T01:34:42;11.53;;;9.40;;
4182;SDS011;2105;52.300;9.182;2023-06-10T01:37:13;10.63;;;9.63;;
4182;SDS011;2105;52.300;9.182;2023-06-10T01:39:44;11.10;;;9.90;;
4182;SDS011;2105;52.300;9.182;2023-06-10T01:42:12;13.60;;;9.30;;
4182;SDS011;2105;52.300;9.182;2023-06-10T01:44:40;10.63;;;9.63;;
4182;SDS011;2105;52.300;9.182;2023-06-10T01:47:07;11.90;;;8.90;;
4182;SDS011;2105;52.300;9.182;2023-06-10T01:49:34;9.90;;;8.90;;
4182;SDS011;2105;52.300;9.182;2023-06-10T01:52:00;10.70;;;9.50;;
4182;SDS011;2105;52.300;9.182;2023-06-10T01:54:29;14.87;;;10.10;;
4182;SDS011;2105;52.300;9.182;2023-06-10T01:56:56;11.27;;;9.80;;
4182;SDS011;2105;52.300;9.182;2023-06-10T01:59:23;9.80;;;8.87;;
4182;SDS011;2105;52.300;9.182;2023-06-10T02:01:49;10.60;;;9.03;;
4182;SDS011;2105;52.300;9.182;2023-06-10T02:04:16;14.07;;;9.10;;
4182;SDS011;2105;52.300;9.182;2023-06-10T02:06:43;9.97;;;9.00;;
4182;SDS011;2105;52.300;9.182;2023-06-10T02:09:10;11.67;;;9.03;;
4182;SDS011;2105;52.300;9.182;2023-06-10T02:11:38;9.60;;;8.70;;
4182;SDS011;2105;52.300;9.182;2023-06-10T02:14:05;10.43;;;9.10;;
4182;SDS011;2105;52.300;9.182;2023-06-10T02:16:32;9.37;;;8.40;;
4182;SDS011;2105;52.300;9.182;2023-06-10T02:18:59;11.00;;;8.50;;
4182;SDS011;2105;52.300;9.182;2023-06-10T02:21:28;9.90;;;8.47;;
4182;SDS011;2105;52.300;9.182;2023-06-10T02:23:55;13.47;;;8.77;;
4182;SDS011;2105;52.300;9.182;2023-06-10T02:26:21;11.60;;;8.83;;
4182;SDS011;2105;52.300;9.182;2023-06-10T02:28:52;14.60;;;8.30;;
4182;SDS011;2105;52.300;9.182;2023-06-10T02:31:19;11.10;;;8.53;;
4182;SDS011;2105;52.300;9.182;2023-06-10T02:33:46;11.03;;;7.93;;
4182;SDS011;2105;52.300;9.182;2023-06-10T02:36:12;13.67;;;9.10;;
4182;SDS011;2105;52.300;9.182;2023-06-10T02:38:40;10.10;;;8.70;;
4182;SDS011;2105;52.300;9.182;2023-06-10T02:41:07;11.00;;;8.50;;
4182;SDS011;2105;52.300;9.182;2023-06-10T02:43:34;14.40;;;8.50;;
4182;SDS011;2105;52.300;9.182;2023-06-10T02:46:02;14.33;;;9.00;;
4182;SDS011;2105;52.300;9.182;2023-06-10T02:48:29;11.60;;;8.90;;
4182;SDS011;2105;52.300;9.182;2023-06-10T02:50:56;12.67;;;8.10;;
4182;SDS011;2105;52.300;9.182;2023-06-10T02:53:23;10.87;;;8.53;;
4182;SDS011;2105;52.300;9.182;2023-06-10T02:55:50;14.00;;;8.80;;
4182;SDS011;2105;52.300;9.182;2023-06-10T02:58:16;9.90;;;8.40;;
4182;SDS011;2105;52.300;9.182;2023-06-10T03:00:43;17.47;;;9.30;;
4182;SDS011;2105;52.300;9.182;2023-06-10T03:03:12;9.83;;;8.80;;
4182;SDS011;2105;52.300;9.182;2023-06-10T03:05:39;12.33;;;8.80;;
4182;SDS011;2105;52.300;9.182;2023-06-10T03:08:06;11.57;;;8.10;;
4182;SDS011;2105;52.300;9.182;2023-06-10T03:10:33;16.03;;;8.30;;
4182;SDS011;2105;52.300;9.182;2023-06-10T03:12:59;9.67;;;8.63;;
4182;SDS011;2105;52.300;9.182;2023-06-10T03:15:26;12.80;;;8.97;;
4182;SDS011;2105;52.300;9.182;2023-06-10T03:17:54;9.07;;;7.90;;
4182;SDS011;2105;52.300;9.182;2023-06-10T03:20:22;8.80;;;7.67;;
4182;SDS011;2105;52.300;9.182;2023-06-10T03:22:50;9.10;;;8.03;;
4182;SDS011;2105;52.300;9.182;2023-06-10T03:25:17;15.37;;;8.10;;
4182;SDS011;2105;52.300;9.182;2023-06-10T03:27:45;15.73;;;9.00;;
4182;SDS011;2105;52.300;9.182;2023-06-10T03:30:13;11.53;;;8.60;;
4182;SDS011;2105;52.300;9.182;2023-06-10T03:32:40;16.17;;;8.67;;
4182;SDS011;2105;52.300;9.182;2023-06-10T03:35:07;15.47;;;8.93;;
4182;SDS011;2105;52.300;9.182;2023-06-10T03:37:36;11.17;;;8.67;;
4182;SDS011;2105;52.300;9.182;2023-06-10T03:40:03;13.03;;;8.67;;
4182;SDS011;2105;52.300;9.182;2023-06-10T03:42:31;16.53;;;9.00;;
4182;SDS011;2105;52.300;9.182;2023-06-10T03:44:57;11.07;;;7.90;;
4182;SDS011;2105;52.300;9.182;2023-06-10T03:47:24;15.63;;;8.50;;
4182;SDS011;2105;52.300;9.182;2023-06-10T03:49:51;16.40;;;9.07;;
4182;SDS011;2105;52.300;9.182;2023-06-10T03:52:18;13.00;;;8.53;;
4182;SDS011;2105;52.300;9.182;2023-06-10T03:54:46;13.17;;;8.70;;
4182;SDS011;2105;52.300;9.182;2023-06-10T03:57:13;15.20;;;8.97;;
4182;SDS011;2105;52.300;9.182;2023-06-10T03:59:40;13.87;;;8.50;;
4182;SDS011;2105;52.300;9.182;2023-06-10T04:02:07;13.83;;;9.23;;
4182;SDS011;2105;52.300;9.182;2023-06-10T04:04:34;17.07;;;8.80;;
4182;SDS011;2105;52.300;9.182;2023-06-10T04:07:02;24.40;;;9.17;;
4182;SDS011;2105;52.300;9.182;2023-06-10T04:09:29;15.47;;;9.67;;
4182;SDS011;2105;52.300;9.182;2023-06-10T04:11:58;14.60;;;9.13;;
4182;SDS011;2105;52.300;9.182;2023-06-10T04:14:24;13.00;;;9.13;;
4182;SDS011;2105;52.300;9.182;2023-06-10T04:16:51;11.37;;;9.10;;
4182;SDS011;2105;52.300;9.182;2023-06-10T04:19:18;15.33;;;8.87;;
4182;SDS011;2105;52.300;9.182;2023-06-10T04:21:46;16.40;;;8.60;;
4182;SDS011;2105;52.300;9.182;2023-06-10T04:24:12;13.00;;;8.83;;
4182;SDS011;2105;52.300;9.182;2023-06-10T04:26:39;13.20;;;9.80;;
4182;SDS011;2105;52.300;9.182;2023-06-10T04:29:07;11.40;;;9.40;;
4182;SDS011;2105;52.300;9.182;2023-06-10T04:31:34;11.77;;;9.40;;
4182;SDS011;2105;52.300;9.182;2023-06-10T04:34:01;10.87;;;9.40;;
4182;SDS011;2105;52.300;9.182;2023-06-10T04:36:28;12.53;;;10.30;;
4182;SDS011;2105;52.300;9.182;2023-06-10T04:38:55;13.50;;;9.60;;
4182;SDS011;2105;52.300;9.182;2023-06-10T04:41:22;13.83;;;9.90;;
4182;SDS011;2105;52.300;9.182;2023-06-10T04:43:49;13.80;;;10.53;;
4182;SDS011;2105;52.300;9.182;2023-06-10T04:46:17;15.13;;;10.97;;
4182;SDS011;2105;52.300;9.182;2023-06-10T04:48:44;11.77;;;10.67;;
4182;SDS011;2105;52.300;9.182;2023-06-10T04:51:12;12.10;;;10.50;;
4182;SDS011;2105;52.300;9.182;2023-06-10T04:53:39;27.50;;;12.17;;
4182;SDS011;2105;52.300;9.182;2023-06-10T04:56:06;15.10;;;11.30;;
4182;SDS011;2105;52.300;9.182;2023-06-10T04:58:34;18.03;;;11.77;;
4182;SDS011;2105;52.300;9.182;2023-06-10T05:01:00;14.30;;;10.90;;
4182;SDS011;2105;52.300;9.182;2023-06-10T05:03:29;14.30;;;11.40;;
4182;SDS011;2105;52.300;9.182;2023-06-10T05:05:56;18.20;;;11.43;;
4182;SDS011;2105;52.300;9.182;2023-06-10T05:08:22;13.00;;;11.70;;
4182;SDS011;2105;52.300;9.182;2023-06-10T05:10:49;14.67;;;11.77;;
4182;SDS011;2105;52.300;9.182;2023-06-10T05:13:16;19.90;;;13.10;;
4182;SDS011;2105;52.300;9.182;2023-06-10T05:15:43;17.90;;;12.50;;
4182;SDS011;2105;52.300;9.182;2023-06-10T05:18:11;15.50;;;11.67;;
4182;SDS011;2105;52.300;9.182;2023-06-10T05:20:40;14.40;;;12.00;;
4182;SDS011;2105;52.300;9.182;2023-06-10T05:23:07;13.50;;;11.50;;
4182;SDS011;2105;52.300;9.182;2023-06-10T05:25:34;15.30;;;12.53;;
4182;SDS011;2105;52.300;9.182;2023-06-10T05:28:01;13.80;;;12.50;;
4182;SDS011;2105;52.300;9.182;2023-06-10T05:30:28;16.30;;;12.93;;
4182;SDS011;2105;52.300;9.182;2023-06-10T05:32:54;14.73;;;13.10;;
4182;SDS011;2105;52.300;9.182;2023-06-10T05:35:21;23.00;;;13.33;;
4182;SDS011;2105;52.300;9.182;2023-06-10T05:37:50;14.73;;;13.30;;
4182;SDS011;2105;52.300;9.182;2023-06-10T05:40:17;14.37;;;12.87;;
4182;SDS011;2105;52.300;9.182;2023-06-10T05:42:43;14.87;;;13.43;;
4182;SDS011;2105;52.300;9.182;2023-06-10T05:45:10;17.03;;;13.27;;
4182;SDS011;2105;52.300;9.182;2023-06-10T05:47:37;16.90;;;14.20;;
4182;SDS011;2105;52.300;9.182;2023-06-10T05:50:05;14.80;;;13.53;;
4182;SDS011;2105;52.300;9.182;2023-06-10T05:52:34;16.40;;;14.20;;
4182;SDS011;2105;52.300;9.182;2023-06-10T05:55:02;17.23;;;14.80;;
4182;SDS011;2105;52.300;9.182;2023-06-10T05:57:30;16.60;;;14.87;;
4182;SDS011;2105;52.300;9.182;2023-06-10T05:59:57;17.20;;;14.37;;
4182;SDS011;2105;52.300;9.182;2023-06-10T06:02:24;17.20;;;15.50;;
4182;SDS011;2105;52.300;9.182;2023-06-10T06:04:52;17.10;;;15.17;;
4182;SDS011;2105;52.300;9.182;2023-06-10T06:07:19;18.00;;;14.47;;
4182;SDS011;2105;52.300;9.182;2023-06-10T06:09:46;16.50;;;14.80;;
4182;SDS011;2105;52.300;9.182;2023-06-10T06:12:14;19.50;;;15.57;;
4182;SDS011;2105;52.300;9.182;2023-06-10T06:14:41;18.80;;;16.13;;
4182;SDS011;2105;52.300;9.182;2023-06-10T06:17:09;16.23;;;14.60;;
4182;SDS011;2105;52.300;9.182;2023-06-10T06:19:36;16.13;;;14.53;;
4182;SDS011;2105;52.300;9.182;2023-06-10T06:22:03;19.43;;;17.37;;
4182;SDS011;2105;52.300;9.182;2023-06-10T06:24:30;18.47;;;15.20;;
4182;SDS011;2105;52.300;9.182;2023-06-10T06:26:57;16.70;;;14.90;;
4182;SDS011;2105;52.300;9.182;2023-06-10T06:29:25;22.50;;;16.73;;
4182;SDS011;2105;52.300;9.182;2023-06-10T06:31:54;19.20;;;16.37;;
4182;SDS011;2105;52.300;9.182;2023-06-10T06:34:21;18.73;;;16.73;;
4182;SDS011;2105;52.300;9.182;2023-06-10T06:36:48;17.60;;;15.90;;
4182;SDS011;2105;52.300;9.182;2023-06-10T06:39:14;17.73;;;15.83;;
4182;SDS011;2105;52.300;9.182;2023-06-10T06:41:41;18.90;;;15.70;;
4182;SDS011;2105;52.300;9.182;2023-06-10T06:44:07;18.00;;;16.10;;
4182;SDS011;2105;52.300;9.182;2023-06-10T06:46:36;19.10;;;17.10;;
4182;SDS011;2105;52.300;9.182;2023-06-10T06:49:02;24.03;;;16.87;;
4182;SDS011;2105;52.300;9.182;2023-06-10T06:51:29;18.33;;;16.33;;
4182;SDS011;2105;52.300;9.182;2023-06-10T06:53:55;24.17;;;17.30;;
4182;SDS011;2105;52.300;9.182;2023-06-10T06:56:23;18.00;;;15.63;;
4182;SDS011;2105;52.300;9.182;2023-06-10T06:58:51;19.77;;;15.73;;
4182;SDS011;2105;52.300;9.182;2023-06-10T07:01:18;19.07;;;17.03;;
4182;SDS011;2105;52.300;9.182;2023-06-10T07:03:46;18.47;;;16.47;;
4182;SDS011;2105;52.300;9.182;2023-06-10T07:06:12;24.67;;;17.10;;
4182;SDS011;2105;52.300;9.182;2023-06-10T07:08:39;19.20;;;17.20;;
4182;SDS011;2105;52.300;9.182;2023-06-10T07:11:06;21.40;;;17.13;;
4182;SDS011;2105;52.300;9.182;2023-06-10T07:13:32;17.63;;;15.80;;
4182;SDS011;2105;52.300;9.182;2023-06-10T07:15:59;16.60;;;15.00;;
4182;SDS011;2105;52.300;9.182;2023-06-10T07:18:26;22.20;;;16.47;;
4182;SDS011;2105;52.300;9.182;2023-06-10T07:20:54;21.07;;;16.13;;
4182;SDS011;2105;52.300;9.182;2023-06-10T07:23:21;20.10;;;15.83;;
4182;SDS011;2105;52.300;9.182;2023-06-10T07:25:47;19.27;;;17.37;;
4182;SDS011;2105;52.300;9.182;2023-06-10T07:28:14;17.70;;;16.00;;
4182;SDS011;2105;52.300;9.182;2023-06-10T07:30:41;17.30;;;15.60;;
4182;SDS011;2105;52.300;9.182;2023-06-10T07:33:07;18.67;;;16.90;;
4182;SDS011;2105;52.300;9.182;2023-06-10T07:35:35;24.33;;;19.00;;
4182;SDS011;2105;52.300;9.182;2023-06-10T07:38:04;19.83;;;16.60;;
4182;SDS011;2105;52.300;9.182;2023-06-10T07:40:30;27.47;;;17.10;;
4182;SDS011;2105;52.300;9.182;2023-06-10T07:42:57;18.63;;;16.83;;
4182;SDS011;2105;52.300;9.182;2023-06-10T07:45:24;20.67;;;16.67;;
4182;SDS011;2105;52.300;9.182;2023-06-10T07:47:50;18.97;;;17.27;;
4182;SDS011;2105;52.300;9.182;2023-06-10T07:50:17;17.97;;;16.30;;
4182;SDS011;2105;52.300;9.182;2023-06-10T07:52:44;19.50;;;17.60;;
4182;SDS011;2105;52.300;9.182;2023-06-10T07:55:12;19.63;;;16.20;;
4182;SDS011;2105;52.300;9.182;2023-06-10T07:57:38;20.07;;;17.30;;
4182;SDS011;2105;52.300;9.182;2023-06-10T08:00:06;20.73;;;15.97;;
4182;SDS011;2105;52.300;9.182;2023-06-10T08:02:34;19.50;;;17.73;;
4182;SDS011;2105;52.300;9.182;2023-06-10T08:05:00;24.83;;;18.93;;
4182;SDS011;2105;52.300;9.182;2023-06-10T08:07:27;21.07;;;18.43;;
4182;SDS011;2105;52.300;9.182;2023-06-10T08:09:54;19.63;;;17.60;;
4182;SDS011;2105;52.300;9.182;2023-06-10T08:12:22;18.20;;;16.57;;
4182;SDS011;2105;52.300;9.182;2023-06-10T08:14:48;21.27;;;18.57;;
4182;SDS011;2105;52.300;9.182;2023-06-10T08:17:15;19.83;;;17.83;;
4182;SDS011;2105;52.300;9.182;2023-06-10T08:19:42;20.13;;;18.03;;
4182;SDS011;2105;52.300;9.182;2023-06-10T08:22:08;18.87;;;16.83;;
4182;SDS011;2105;52.300;9.182;2023-06-10T08:24:35;24.30;;;18.80;;
4182;SDS011;2105;52.300;9.182;2023-06-10T08:27:02;21.03;;;18.83;;
4182;SDS011;2105;52.300;9.182;2023-06-10T08:29:32;19.50;;;17.50;;
4182;SDS011;2105;52.300;9.182;2023-06-10T08:31:59;19.73;;;17.73;;
4182;SDS011;2105;52.300;9.182;2023-06-10T08:34:26;18.93;;;17.10;;
4182;SDS011;2105;52.300;9.182;2023-06-10T08:36:53;20.40;;;18.20;;
4182;SDS011;2105;52.300;9.182;2023-06-10T08:39:20;22.83;;;19.30;;
4182;SDS011;2105;52.300;9.182;2023-06-10T08:41:49;21.37;;;19.07;;
4182;SDS011;2105;52.300;9.182;2023-06-10T08:44:26;22.53;;;20.23;;
4182;SDS011;2105;52.300;9.182;2023-06-10T08:46:57;23.27;;;20.13;;
4182;SDS011;2105;52.300;9.182;2023-06-10T08:49:26;27.43;;;19.80;;
4182;SDS011;2105;52.300;9.182;2023-06-10T08:51:58;25.50;;;19.80;;
4182;SDS011;2105;52.300;9.182;2023-06-10T08:54:27;24.27;;;20.17;;
4182;SDS011;2105;52.300;9.182;2023-06-10T08:56:57;22.37;;;20.27;;
4182;SDS011;2105;52.300;9.182;2023-06-10T08:59:26;23.50;;;20.50;;
4182;SDS011;2105;52.300;9.182;2023-06-10T09:01:52;24.20;;;21.67;;
4182;SDS011;2105;52.300;9.182;2023-06-10T09:04:21;23.17;;;21.17;;
4182;SDS011;2105;52.300;9.182;2023-06-10T09:06:51;22.57;;;20.30;;
4182;SDS011;2105;52.300;9.182;2023-06-10T09:09:20;22.43;;;20.33;;
4182;SDS011;2105;52.300;9.182;2023-06-10T09:11:48;21.37;;;19.47;;
4182;SDS011;2105;52.300;9.182;2023-06-10T09:14:15;23.13;;;19.60;;
4182;SDS011;2105;52.300;9.182;2023-06-10T09:16:42;21.63;;;19.50;;
4182;SDS011;2105;52.300;9.182;2023-06-10T09:19:11;23.63;;;21.43;;
4182;SDS011;2105;52.300;9.182;2023-06-10T09:21:40;24.30;;;22.00;;
4182;SDS011;2105;52.300;9.182;2023-06-10T09:24:07;23.57;;;21.27;;
4182;SDS011;2105;52.300;9.182;2023-06-10T09:26:34;23.93;;;21.67;;
4182;SDS011;2105;52.300;9.182;2023-06-10T09:29:02;23.20;;;21.00;;
4182;SDS011;2105;52.300;9.182;2023-06-10T09:31:29;24.10;;;21.53;;
4182;SDS011;2105;52.300;9.182;2023-06-10T09:34:04;22.53;;;20.40;;
4182;SDS011;2105;52.300;9.182;2023-06-10T09:36:32;22.73;;;20.60;;
4182;SDS011;2105;52.300;9.182;2023-06-10T09:39:00;21.40;;;19.70;;
4182;SDS011;2105;52.300;9.182;2023-06-10T09:41:31;23.07;;;20.63;;
4182;SDS011;2105;52.300;9.182;2023-06-10T09:43:59;22.47;;;20.43;;
4182;SDS011;2105;52.300;9.182;2023-06-10T09:46:25;22.23;;;20.10;;
4182;SDS011;2105;52.300;9.182;2023-06-10T09:48:57;22.13;;;20.03;;
4182;SDS011;2105;52.300;9.182;2023-06-10T09:51:24;21.53;;;19.53;;
4182;SDS011;2105;52.300;9.182;2023-06-10T09:53:50;19.33;;;17.53;;
4182;SDS011;2105;52.300;9.182;2023-06-10T09:56:19;19.00;;;17.43;;
4182;SDS011;2105;52.300;9.182;2023-06-10T09:58:49;23.27;;;18.50;;
4182;SDS011;2105;52.300;9.182;2023-06-10T10:01:19;18.60;;;17.03;;
4182;SDS011;2105;52.300;9.182;2023-06-10T10:03:46;22.77;;;20.47;;
4182;SDS011;2105;52.300;9.182;2023-06-10T10:06:14;21.83;;;19.97;;
4182;SDS011;2105;52.300;9.182;2023-06-10T10:08:41;22.03;;;20.23;;
4182;SDS011;2105;52.300;9.182;2023-06-10T10:11:08;22.27;;;20.17;;
4182;SDS011;2105;52.300;9.182;2023-06-10T10:13:37;21.63;;;19.93;;
4182;SDS011;2105;52.300;9.182;2023-06-10T10:16:04;23.00;;;20.90;;
4182;SDS011;2105;52.300;9.182;2023-06-10T10:18:38;22.70;;;20.80;;
4182;SDS011;2105;52.300;9.182;2023-06-10T10:21:11;22.43;;;20.10;;
4182;SDS011;2105;52.300;9.182;2023-06-10T10:23:40;22.33;;;20.33;;
4182;SDS011;2105;52.300;9.182;2023-06-10T10:26:11;21.87;;;19.87;;
4182;SDS011;2105;52.300;9.182;2023-06-10T10:28:45;21.57;;;19.67;;
4182;SDS011;2105;52.300;9.182;2023-06-10T10:31:18;22.17;;;20.07;;
4182;SDS011;2105;52.300;9.182;2023-06-10T10:33:48;21.37;;;19.67;;
4182;SDS011;2105;52.300;9.182;2023-06-10T10:36:21;22.53;;;20.50;;
4182;SDS011;2105;52.300;9.182;2023-06-10T10:38:48;22.13;;;20.17;;
4182;SDS011;2105;52.300;9.182;2023-06-10T10:41:15;21.77;;;19.47;;
4182;SDS011;2105;52.300;9.182;2023-06-10T10:43:45;22.53;;;20.43;;
4182;SDS011;2105;52.300;9.182;2023-06-10T10:46:14;22.80;;;20.40;;
4182;SDS011;2105;52.300;9.182;2023-06-10T10:48:42;21.60;;;19.83;;
4182;SDS011;2105;52.300;9.182;2023-06-10T10:51:10;22.13;;;20.13;;
4182;SDS011;2105;52.300;9.182;2023-06-10T10:53:37;21.70;;;19.87;;
4182;SDS011;2105;52.300;9.182;2023-06-10T10:56:04;22.70;;;20.60;;
4182;SDS011;2105;52.300;9.182;2023-06-10T10:58:32;21.53;;;19.53;;
4182;SDS011;2105;52.300;9.182;2023-06-10T11:01:01;21.87;;;19.97;;
4182;SDS011;2105;52.300;9.182;2023-06-10T11:03:41;22.63;;;20.53;;
4182;SDS011;2105;52.300;9.182;2023-06-10T11:06:11;21.73;;;19.63;;
4182;SDS011;2105;52.300;9.182;2023-06-10T11:08:45;21.27;;;19.40;;
4182;SDS011;2105;52.300;9.182;2023-06-10T11:11:23;21.20;;;19.60;;
4182;SDS011;2105;52.300;9.182;2023-06-10T11:13:57;22.57;;;20.37;;
4182;SDS011;2105;52.300;9.182;2023-06-10T11:16:28;21.37;;;19.47;;
4182;SDS011;2105;52.300;9.182;2023-06-10T11:18:55;21.00;;;19.27;;
4182;SDS011;2105;52.300;9.182;2023-06-10T11:21:22;21.00;;;19.30;;
4182;SDS011;2105;52.300;9.182;2023-06-10T11:23:50;21.00;;;18.90;;
4182;SDS011;2105;52.300;9.182;2023-06-10T11:26:21;20.90;;;19.03;;
4182;SDS011;2105;52.300;9.182;2023-06-10T11:29:01;21.17;;;19.27;;
4182;SDS011;2105;52.300;9.182;2023-06-10T11:31:31;20.03;;;18.30;;
4182;SDS011;2105;52.300;9.182;2023-06-10T11:33:59;21.73;;;19.90;;
4182;SDS011;2105;52.300;9.182;2023-06-10T11:36:27;20.70;;;18.87;;
4182;SDS011;2105;52.300;9.182;2023-06-10T11:38:55;22.27;;;20.03;;
4182;SDS011;2105;52.300;9.182;2023-06-10T11:41:23;20.83;;;18.90;;
4182;SDS011;2105;52.300;9.182;2023-06-10T11:43:51;20.63;;;18.80;;
4182;SDS011;2105;52.300;9.182;2023-06-10T11:46:19;21.33;;;19.43;;
4182;SDS011;2105;52.300;9.182;2023-06-10T11:48:50;21.70;;;19.80;;
4182;SDS011;2105;52.300;9.182;2023-06-10T11:51:18;20.50;;;18.70;;
4182;SDS011;2105;52.300;9.182;2023-06-10T11:53:45;20.83;;;19.13;;
4182;SDS011;2105;52.300;9.182;2023-06-10T11:56:12;21.43;;;19.60;;
4182;SDS011;2105;52.300;9.182;2023-06-10T11:58:39;21.00;;;19.30;;
4182;SDS011;2105;52.300;9.182;2023-06-10T12:01:11;21.60;;;19.60;;
4182;SDS011;2105;52.300;9.182;2023-06-10T12:03:45;22.37;;;20.20;;
4182;SDS011;2105;52.300;9.182;2023-06-10T12:06:13;21.03;;;19.20;;
4182;SDS011;2105;52.300;9.182;2023-06-10T12:08:41;21.80;;;19.80;;
4182;SDS011;2105;52.300;9.182;2023-06-10T12:11:08;21.23;;;19.33;;
4182;SDS011;2105;52.300;9.182;2023-06-10T12:13:36;21.83;;;19.40;;
4182;SDS011;2105;52.300;9.182;2023-06-10T12:16:06;21.50;;;19.70;;
4182;SDS011;2105;52.300;9.182;2023-06-10T12:18:33;20.97;;;19.13;;
4182;SDS011;2105;52.300;9.182;2023-06-10T12:21:00;21.60;;;19.60;;
4182;SDS011;2105;52.300;9.182;2023-06-10T12:23:29;21.23;;;19.43;;
4182;SDS011;2105;52.300;9.182;2023-06-10T12:25:57;24.93;;;20.07;;
4182;SDS011;2105;52.300;9.182;2023-06-10T12:28:25;21.50;;;19.30;;
4182;SDS011;2105;52.300;9.182;2023-06-10T12:31:05;22.73;;;20.53;;
4182;SDS011;2105;52.300;9.182;2023-06-10T12:33:32;21.43;;;19.50;;
4182;SDS011;2105;52.300;9.182;2023-06-10T12:35:59;21.53;;;19.53;;
4182;SDS011;2105;52.300;9.182;2023-06-10T12:38:26;21.60;;;19.80;;
4182;SDS011;2105;52.300;9.182;2023-06-10T12:40:54;22.10;;;20.20;;
4182;SDS011;2105;52.300;9.182;2023-06-10T12:43:27;21.13;;;19.43;;
4182;SDS011;2105;52.300;9.182;2023-06-10T12:45:53;21.80;;;19.93;;
4182;SDS011;2105;52.300;9.182;2023-06-10T12:48:20;21.80;;;19.97;;
4182;SDS011;2105;52.300;9.182;2023-06-10T12:50:50;21.27;;;19.50;;
4182;SDS011;2105;52.300;9.182;2023-06-10T12:53:18;21.47;;;19.50;;
4182;SDS011;2105;52.300;9.182;2023-06-10T12:55:45;21.73;;;19.80;;
4182;SDS011;2105;52.300;9.182;2023-06-10T12:58:13;22.07;;;20.10;;
4182;SDS011;2105;52.300;9.182;2023-06-10T13:00:40;22.17;;;20.13;;
4182;SDS011;2105;52.300;9.182;2023-06-10T13:03:07;21.23;;;19.50;;
4182;SDS011;2105;52.300;9.182;2023-06-10T13:05:35;22.63;;;20.60;;
4182;SDS011;2105;52.300;9.182;2023-06-10T13:08:03;22.80;;;20.50;;
4182;SDS011;2105;52.300;9.182;2023-06-10T13:10:30;21.53;;;19.73;;
4182;SDS011;2105;52.300;9.182;2023-06-10T13:12:57;21.90;;;19.90;;
4182;SDS011;2105;52.300;9.182;2023-06-10T13:15:25;22.67;;;20.57;;
4182;SDS011;2105;52.300;9.182;2023-06-10T13:17:52;22.17;;;20.27;;
4182;SDS011;2105;52.300;9.182;2023-06-10T13:20:19;21.63;;;19.63;;
4182;SDS011;2105;52.300;9.182;2023-06-10T13:22:46;22.77;;;20.50;;
4182;SDS011;2105;52.300;9.182;2023-06-10T13:25:14;22.23;;;20.20;;
4182;SDS011;2105;52.300;9.182;2023-06-10T13:27:41;23.23;;;20.90;;
4182;SDS011;2105;52.300;9.182;2023-06-10T13:30:08;21.97;;;19.80;;
4182;SDS011;2105;52.300;9.182;2023-06-10T13:32:37;22.50;;;20.17;;
4182;SDS011;2105;52.300;9.182;2023-06-10T13:35:05;22.20;;;20.20;;
4182;SDS011;2105;52.300;9.182;2023-06-10T13:37:32;23.20;;;20.90;;
4182;SDS011;2105;52.300;9.182;2023-06-10T13:39:59;21.70;;;19.97;;
4182;SDS011;2105;52.300;9.182;2023-06-10T13:42:27;22.33;;;20.33;;
4182;SDS011;2105;52.300;9.182;2023-06-10T13:44:54;22.07;;;20.07;;
4182;SDS011;2105;52.300;9.182;2023-06-10T13:47:21;22.50;;;20.60;;
4182;SDS011;2105;52.300;9.182;2023-06-10T13:49:49;22.27;;;20.00;;
4182;SDS011;2105;52.300;9.182;2023-06-10T13:52:16;22.60;;;20.60;;
4182;SDS011;2105;52.300;9.182;2023-06-10T13:54:43;22.80;;;20.70;;
4182;SDS011;2105;52.300;9.182;2023-06-10T13:57:09;22.20;;;20.17;;
4182;SDS011;2105;52.300;9.182;2023-06-10T13:59:36;23.93;;;21.13;;
4182;SDS011;2105;52.300;9.182;2023-06-10T14:02:03;22.80;;;20.60;;
4182;SDS011;2105;52.300;9.182;2023-06-10T14:04:30;21.83;;;20.13;;
4182;SDS011;2105;52.300;9.182;2023-06-10T14:06:58;22.77;;;20.60;;
4182;SDS011;2105;52.300;9.182;2023-06-10T14:09:25;22.83;;;20.63;;
4182;SDS011;2105;52.300;9.182;2023-06-10T14:11:52;23.57;;;21.13;;
4182;SDS011;2105;52.300;9.182;2023-06-10T14:14:19;24.13;;;21.67;;
4182;SDS011;2105;52.300;9.182;2023-06-10T14:16:46;23.87;;;21.33;;
4182;SDS011;2105;52.300;9.182;2023-06-10T14:19:12;22.20;;;20.17;;
4182;SDS011;2105;52.300;9.182;2023-06-10T14:21:39;23.87;;;21.77;;
4182;SDS011;2105;52.300;9.182;2023-06-10T14:24:07;22.90;;;20.70;;
4182;SDS011;2105;52.300;9.182;2023-06-10T14:26:34;23.17;;;20.90;;
4182;SDS011;2105;52.300;9.182;2023-06-10T14:29:00;22.20;;;20.17;;
4182;SDS011;2105;52.300;9.182;2023-06-10T14:31:27;21.80;;;19.90;;
4182;SDS011;2105;52.300;9.182;2023-06-10T14:33:54;22.23;;;20.43;;
4182;SDS011;2105;52.300;9.182;2023-06-10T14:36:21;22.43;;;20.63;;
4182;SDS011;2105;52.300;9.182;2023-06-10T14:38:47;22.70;;;20.40;;
4182;SDS011;2105;52.300;9.182;2023-06-10T14:41:16;22.03;;;19.90;;
4182;SDS011;2105;52.300;9.182;2023-06-10T14:43:43;21.63;;;19.67;;
4182;SDS011;2105;52.300;9.182;2023-06-10T14:46:09;22.47;;;20.43;;
4182;SDS011;2105;52.300;9.182;2023-06-10T14:48:36;22.80;;;20.70;;
4182;SDS011;2105;52.300;9.182;2023-06-10T14:51:03;22.30;;;20.50;;
4182;SDS011;2105;52.300;9.182;2023-06-10T14:53:30;22.10;;;20.20;;
4182;SDS011;2105;52.300;9.182;2023-06-10T14:55:56;22.20;;;20.40;;